Time;durP1;ratioP1;P1;durP2;ratioP2;P2;SDS_P1;SDS_P2;PMS_P1;PMS_P2;Temp;Humidity;BMP_temperature;BMP_pressure;BME280_temperature;BME280_humidity;BME280_pressure;Samples;Min_cycle;Max_cycle;Signal;HPM_P1;HPM_P2
2021/05/08 00:00:33;;;;;;;2.90;2.70;;;;;18.00;100711.00;;;;2079804;28;20217;-67
2021/05/08 00:01:34;;;;;;;2.53;2.33;;;;;17.90;100720.00;;;;2079100;28;20222;-67
2021/05/08 00:02:34;;;;;;;2.90;2.70;;;;;18.00;100711.00;;;;2079040;28;20214;-67
2021/05/08 00:03:35;;;;;;;2.80;2.60;;;;;18.00;100710.00;;;;2079623;28;20464;-67
2021/05/08 00:04:35;;;;;;;2.90;2.70;;;;;17.90;100714.00;;;;2079097;28;20225;-67
2021/05/08 00:05:35;;;;;;;3.33;3.10;;;;;18.00;100713.00;;;;2079116;28;20299;-68
2021/05/08 00:06:36;;;;;;;2.93;2.70;;;;;17.90;100711.00;;;;2079077;28;20704;-67
2021/05/08 00:07:36;;;;;;;2.70;2.50;;;;;17.90;100712.00;;;;2079071;28;20731;-67
2021/05/08 00:08:37;;;;;;;3.37;3.07;;;;;17.90;100725.00;;;;2079743;28;20220;-67
2021/05/08 00:09:37;;;;;;;3.10;2.80;;;;;18.00;100718.00;;;;2070793;28;20214;-67
2021/05/08 00:10:37;;;;;;;2.90;2.70;;;;;18.00;100727.00;;;;2070683;28;20238;-68
2021/05/08 00:11:38;;;;;;;2.70;2.50;;;;;17.90;100722.00;;;;2079903;28;20209;-67
2021/05/08 00:12:38;;;;;;;2.97;2.77;;;;;17.90;100719.00;;;;2078266;28;20223;-67
2021/05/08 00:13:38;;;;;;;2.90;2.60;;;;;17.90;100715.00;;;;2079102;28;20224;-67
2021/05/08 00:14:39;;;;;;;3.27;3.00;;;;;17.90;100712.00;;;;2078946;28;20305;-67
2021/05/08 00:15:39;;;;;;;3.43;3.13;;;;;17.90;100716.00;;;;2079714;28;20635;-67
2021/05/08 00:16:39;;;;;;;3.20;2.90;;;;;17.90;100711.00;;;;2079768;28;20220;-67
2021/05/08 00:17:40;;;;;;;3.17;2.90;;;;;17.90;100714.00;;;;2079663;28;20221;-67
2021/05/08 00:18:40;;;;;;;3.17;2.87;;;;;17.90;100712.00;;;;2079788;28;20241;-67
2021/05/08 00:19:40;;;;;;;3.57;3.27;;;;;17.90;100715.00;;;;2078913;28;20252;-67
2021/05/08 00:20:41;;;;;;;3.30;3.10;;;;;17.90;100707.00;;;;2079084;28;20221;-68
2021/05/08 00:21:41;;;;;;;3.10;2.80;;;;;17.90;100711.00;;;;2079622;28;20225;-67
2021/05/08 00:22:41;;;;;;;3.33;2.80;;;;;17.90;100718.00;;;;2079726;28;20237;-67
2021/05/08 00:23:42;;;;;;;3.50;3.20;;;;;17.90;100713.00;;;;2079547;28;20228;-67
2021/05/08 00:24:42;;;;;;;2.90;2.60;;;;;17.90;100708.00;;;;2079745;28;20218;-67
2021/05/08 00:25:42;;;;;;;3.40;3.10;;;;;17.90;100704.00;;;;2079476;28;20310;-68
2021/05/08 00:26:43;;;;;;;3.23;2.80;;;;;17.90;100709.00;;;;2079781;28;20217;-68
2021/05/08 00:27:43;;;;;;;3.43;3.17;;;;;17.90;100710.00;;;;2078770;28;20312;-67
2021/05/08 00:28:43;;;;;;;2.77;2.57;;;;;17.90;100706.00;;;;2079020;28;20224;-67
2021/05/08 00:29:44;;;;;;;2.77;2.57;;;;;17.90;100707.00;;;;2079090;28;20214;-67
2021/05/08 00:30:44;;;;;;;3.20;2.90;;;;;17.70;100710.00;;;;2078793;28;20217;-67
2021/05/08 00:31:44;;;;;;;3.53;3.20;;;;;17.90;100696.00;;;;2079153;28;21347;-68
2021/05/08 00:32:45;;;;;;;3.30;3.00;;;;;17.90;100701.00;;;;2079357;28;20244;-66
2021/05/08 00:33:45;;;;;;;3.53;3.23;;;;;17.90;100703.00;;;;2079697;28;20704;-67
2021/05/08 00:34:45;;;;;;;3.23;2.93;;;;;17.90;100700.00;;;;2079024;28;20748;-66
2021/05/08 00:35:46;;;;;;;2.73;2.53;;;;;17.90;100700.00;;;;2078909;28;20240;-67
2021/05/08 00:36:46;;;;;;;3.00;2.77;;;;;17.90;100699.00;;;;2078817;28;20209;-67
2021/05/08 00:37:47;;;;;;;3.00;2.80;;;;;17.90;100699.00;;;;2078632;28;20229;-66
2021/05/08 00:38:47;;;;;;;3.00;2.80;;;;;17.90;100699.00;;;;2079593;28;20221;-67
2021/05/08 00:39:47;;;;;;;3.00;2.80;;;;;17.90;100690.00;;;;2079598;28;20226;-67
2021/05/08 00:40:48;;;;;;;2.93;2.67;;;;;17.90;100702.00;;;;2079455;28;20245;-67
2021/05/08 00:41:48;;;;;;;3.57;3.27;;;;;17.90;100704.00;;;;2078084;28;20221;-67
2021/05/08 00:42:48;;;;;;;2.93;2.73;;;;;17.90;100697.00;;;;2078895;28;20735;-67
2021/05/08 00:43:56;;;;;;;3.10;2.90;;;;;17.80;100697.00;;;;2062517;28;20686;-67
2021/05/08 00:44:57;;;;;;;3.05;2.75;;;;;17.90;100692.00;;;;2063462;28;20311;-67
2021/05/08 00:45:57;;;;;;;5.03;3.40;;;;;17.90;100693.00;;;;2069028;28;20215;-67
2021/05/08 00:46:58;;;;;;;3.43;3.13;;;;;17.90;100692.00;;;;2070907;28;20219;-67
2021/05/08 00:48:12;;;;;;;3.27;3.07;;;;;17.90;100696.00;;;;2062756;28;20653;-67
2021/05/08 00:49:12;;;;;;;3.20;3.00;;;;;17.90;100697.00;;;;2055549;28;20302;-67
2021/05/08 00:50:13;;;;;;;3.20;2.90;;;;;17.90;100683.00;;;;2056193;28;20262;-67
2021/05/08 00:51:13;;;;;;;3.00;2.80;;;;;17.90;100693.00;;;;2055471;28;20216;-67
2021/05/08 00:52:14;;;;;;;3.47;3.17;;;;;17.80;100685.00;;;;2071932;28;20294;-67
2021/05/08 00:53:14;;;;;;;3.40;3.10;;;;;17.90;100686.00;;;;2080443;28;20325;-67
2021/05/08 00:54:14;;;;;;;3.30;3.00;;;;;17.90;100685.00;;;;2080519;28;20260;-67
2021/05/08 00:55:15;;;;;;;3.10;2.90;;;;;17.90;100686.00;;;;2081139;28;20216;-67
2021/05/08 00:56:15;;;;;;;3.67;3.13;;;;;17.90;100679.00;;;;2081109;28;20222;-67
2021/05/08 00:57:15;;;;;;;2.87;2.67;;;;;17.90;100685.00;;;;2080240;28;20210;-67
2021/05/08 00:58:16;;;;;;;3.40;3.10;;;;;17.70;100683.00;;;;2080288;28;20221;-67
2021/05/08 00:59:16;;;;;;;3.40;3.10;;;;;17.80;100685.00;;;;2080456;28;20297;-68
2021/05/08 01:00:17;;;;;;;3.50;3.20;;;;;17.80;100680.00;;;;2080354;28;20271;-67
2021/05/08 01:01:17;;;;;;;3.23;2.93;;;;;17.80;100679.00;;;;2080117;28;20217;-67
2021/05/08 01:02:17;;;;;;;2.73;2.53;;;;;17.80;100688.00;;;;2080113;28;20456;-67
2021/05/08 01:03:18;;;;;;;3.53;3.23;;;;;17.80;100679.00;;;;2072112;28;20789;-68
2021/05/08 01:04:19;;;;;;;3.07;2.87;;;;;17.80;100674.00;;;;2072045;28;20218;-67
2021/05/08 01:05:19;;;;;;;3.17;2.88;;;;;17.80;100685.00;;;;2072025;28;20305;-67
2021/05/08 01:06:20;;;;;;;2.77;2.60;;;;;17.80;100670.00;;;;2071884;28;20218;-65
2021/05/08 01:07:20;;;;;;;3.03;2.83;;;;;17.80;100675.00;;;;2080750;28;20206;-66
2021/05/08 01:08:20;;;;;;;3.07;2.87;;;;;17.80;100682.00;;;;2072115;28;20202;-67
2021/05/08 01:09:22;;;;;;;3.50;3.20;;;;;17.80;100665.00;;;;2072052;28;20695;-67
2021/05/08 01:10:24;;;;;;;3.58;3.28;;;;;17.80;100685.00;;;;2080216;28;20214;-67
2021/05/08 01:11:24;;;;;;;3.50;3.20;;;;;17.80;100676.00;;;;2063850;28;20273;-67
2021/05/08 01:12:25;;;;;;;3.20;2.90;;;;;17.80;100680.00;;;;2057636;28;20274;-67
2021/05/08 01:13:25;;;;;;;3.37;3.07;;;;;17.80;100659.00;;;;2072108;28;20301;-66
2021/05/08 01:14:26;;;;;;;3.00;2.80;;;;;17.80;100680.00;;;;2072132;28;20358;-67
2021/05/08 01:15:26;;;;;;;2.73;2.53;;;;;17.80;100683.00;;;;2072233;28;20485;-67
2021/05/08 01:16:26;;;;;;;3.33;3.03;;;;;17.80;100672.00;;;;2072140;28;20337;-67
2021/05/08 01:17:27;;;;;;;3.20;3.00;;;;;17.80;100671.00;;;;2064247;28;20252;-67
2021/05/08 01:18:29;;;;;;;3.50;3.20;;;;;17.80;100669.00;;;;2055967;28;20263;-67
2021/05/08 01:19:29;;;;;;;3.63;3.33;;;;;17.80;100674.00;;;;2056266;28;20244;-68
2021/05/08 01:20:30;;;;;;;3.17;2.70;;;;;17.80;100672.00;;;;2056123;28;20235;-67
2021/05/08 01:21:30;;;;;;;3.03;2.73;;;;;17.80;100671.00;;;;2063804;28;20211;-67
2021/05/08 01:22:30;;;;;;;2.90;2.70;;;;;17.80;100662.00;;;;2079680;28;20675;-67
2021/05/08 01:23:31;;;;;;;3.17;2.87;;;;;17.80;100661.00;;;;2079619;28;20695;-67
2021/05/08 01:24:31;;;;;;;2.80;2.60;;;;;17.80;100666.00;;;;2079869;28;20693;-67
2021/05/08 01:25:31;;;;;;;3.37;3.07;;;;;17.80;100664.00;;;;2080183;28;20296;-68
2021/05/08 01:26:32;;;;;;;2.77;2.57;;;;;17.80;100658.00;;;;2079323;28;20228;-67
2021/05/08 01:27:32;;;;;;;3.63;3.33;;;;;17.80;100664.00;;;;2071528;28;20214;-67
2021/05/08 01:28:33;;;;;;;3.03;2.77;;;;;17.80;100658.00;;;;2079699;28;20236;-67
2021/05/08 01:29:33;;;;;;;3.50;3.20;;;;;17.80;100658.00;;;;2080277;28;20230;-67
2021/05/08 01:30:35;;;;;;;3.10;2.90;;;;;17.80;100655.00;;;;2079453;28;20210;-67
2021/05/08 01:31:35;;;;;;;3.28;3.05;;;;;17.80;100659.00;;;;2075460;28;20211;-67
2021/05/08 01:32:36;;;;;;;2.90;2.60;;;;;17.80;100656.00;;;;2079819;28;20293;-67
2021/05/08 01:33:36;;;;;;;3.40;3.07;;;;;17.80;100659.00;;;;2080945;28;20236;-67
2021/05/08 01:34:37;;;;;;;2.80;2.60;;;;;17.80;100655.00;;;;2079939;28;20214;-67
2021/05/08 01:35:37;;;;;;;3.00;2.80;;;;;17.80;100654.00;;;;2080161;28;20210;-67
2021/05/08 01:36:37;;;;;;;2.63;2.43;;;;;17.80;100661.00;;;;2079964;28;20206;-68
2021/05/08 01:37:38;;;;;;;3.17;2.97;;;;;17.80;100667.00;;;;2079952;28;20221;-68
2021/05/08 01:38:38;;;;;;;2.90;2.70;;;;;17.80;100663.00;;;;2080781;28;20734;-67
2021/05/08 01:39:39;;;;;;;3.50;2.77;;;;;17.80;100660.00;;;;2080586;28;20234;-67
2021/05/08 01:40:40;;;;;;;2.80;2.60;;;;;17.80;100662.00;;;;2080814;28;20256;-67
2021/05/08 01:41:40;;;;;;;3.58;3.28;;;;;17.80;100655.00;;;;2079994;28;20202;-67
2021/05/08 01:42:41;;;;;;;3.00;2.80;;;;;17.80;100666.00;;;;2071501;28;20202;-68
2021/05/08 01:43:42;;;;;;;3.35;3.05;;;;;17.80;100664.00;;;;2063905;28;20207;-67
2021/05/08 01:44:42;;;;;;;3.10;2.80;;;;;17.80;100661.00;;;;2071962;28;20206;-67
2021/05/08 01:45:42;;;;;;;3.20;2.87;;;;;17.80;100660.00;;;;2080801;28;20898;-67
2021/05/08 01:46:43;;;;;;;3.00;2.73;;;;;17.80;100656.00;;;;2080573;28;20628;-67
2021/05/08 01:47:43;;;;;;;3.20;2.90;;;;;17.80;100661.00;;;;2080547;28;20214;-67
2021/05/08 01:48:43;;;;;;;3.13;2.90;;;;;17.80;100650.00;;;;2080436;28;20206;-67
2021/05/08 01:49:44;;;;;;;2.50;2.30;;;;;17.80;100653.00;;;;2080696;28;20229;-68
2021/05/08 01:50:44;;;;;;;3.10;2.83;;;;;17.80;100656.00;;;;2080672;28;20218;-69
2021/05/08 01:51:44;;;;;;;2.93;2.73;;;;;17.80;100653.00;;;;2079932;28;20240;-68
2021/05/08 01:52:45;;;;;;;3.00;2.80;;;;;17.80;100649.00;;;;2071615;28;20242;-68
2021/05/08 01:53:45;;;;;;;3.10;2.90;;;;;17.80;100645.00;;;;2071686;28;20228;-68
2021/05/08 01:54:46;;;;;;;3.30;3.00;;;;;17.80;100644.00;;;;2079741;28;20224;-69
2021/05/08 01:55:46;;;;;;;2.70;2.50;;;;;17.80;100648.00;;;;2080734;28;21445;-68
2021/05/08 01:56:47;;;;;;;2.80;2.60;;;;;17.80;100647.00;;;;2080708;28;20591;-68
2021/05/08 01:57:48;;;;;;;3.27;2.97;;;;;17.70;100646.00;;;;2080582;28;20305;-68
2021/05/08 01:58:48;;;;;;;3.72;3.13;;;;;17.80;100651.00;;;;2080327;28;20271;-69
2021/05/08 01:59:49;;;;;;;2.97;2.77;;;;;17.80;100651.00;;;;2080440;28;20253;-69
2021/05/08 02:00:49;;;;;;;3.00;2.80;;;;;17.80;100653.00;;;;2079680;28;20385;-68
2021/05/08 02:01:50;;;;;;;3.93;3.17;;;;;17.80;100651.00;;;;2078129;28;20225;-69
2021/05/08 02:02:51;;;;;;;3.00;2.80;;;;;17.80;100644.00;;;;2080367;28;20217;-68
2021/05/08 02:03:51;;;;;;;3.13;2.92;;;;;17.80;100655.00;;;;2080374;28;20217;-68
2021/05/08 02:04:51;;;;;;;2.80;2.60;;;;;17.80;100647.00;;;;2079987;28;20651;-68
2021/05/08 02:05:52;;;;;;;3.00;2.80;;;;;17.80;100653.00;;;;2079827;28;20582;-68
2021/05/08 02:06:52;;;;;;;2.73;2.53;;;;;17.80;100652.00;;;;2080740;28;20304;-68
2021/05/08 02:07:53;;;;;;;3.10;2.80;;;;;17.80;100650.00;;;;2071825;28;20222;-68
2021/05/08 02:08:53;;;;;;;2.90;2.70;;;;;17.80;100652.00;;;;2071132;28;20249;-68
2021/05/08 02:09:53;;;;;;;3.10;2.90;;;;;17.80;100652.00;;;;2080478;28;20209;-68
2021/05/08 02:10:54;;;;;;;3.20;2.90;;;;;17.80;100642.00;;;;2080364;28;20226;-68
2021/05/08 02:11:54;;;;;;;2.87;2.63;;;;;17.80;100646.00;;;;2079614;28;20306;-68
2021/05/08 02:12:58;;;;;;;3.10;2.90;;;;;17.80;100643.00;;;;2079882;28;20238;-68
2021/05/08 02:13:59;;;;;;;3.00;2.80;;;;;17.80;100643.00;;;;2079274;28;20684;-68
2021/05/08 02:14:59;;;;;;;3.10;2.80;;;;;17.80;100642.00;;;;2079432;28;20305;-68
2021/05/08 02:16:00;;;;;;;3.00;2.80;;;;;17.80;100638.00;;;;2079932;28;20762;-68
2021/05/08 02:17:00;;;;;;;2.77;2.57;;;;;17.80;100639.00;;;;2080659;28;20242;-69
2021/05/08 02:18:00;;;;;;;3.10;2.90;;;;;17.70;100645.00;;;;2080129;28;20222;-67
2021/05/08 02:19:01;;;;;;;3.27;2.97;;;;;17.80;100641.00;;;;2080450;28;20226;-67
2021/05/08 02:20:07;;;;;;;2.70;2.50;;;;;17.80;100631.00;;;;2080394;28;20225;-67
2021/05/08 02:21:08;;;;;;;2.95;2.75;;;;;17.80;100624.00;;;;2079603;28;20248;-68
2021/05/08 02:22:08;;;;;;;3.15;2.95;;;;;17.80;100633.00;;;;2079710;28;20279;-68
2021/05/08 02:23:13;;;;;;;2.90;2.70;;;;;17.80;100627.00;;;;2080584;28;20217;-69
2021/05/08 02:24:13;;;;;;;2.70;2.45;;;;;17.80;100631.00;;;;2080552;28;20217;-69
2021/05/08 02:25:14;;;;;;;2.93;2.73;;;;;17.70;100639.00;;;;2080474;28;20233;-68
2021/05/08 02:26:14;;;;;;;2.67;2.47;;;;;17.80;100612.00;;;;2080372;28;20206;-68
2021/05/08 02:27:14;;;;;;;2.70;2.50;;;;;17.70;100637.00;;;;2079877;28;20222;-68
2021/05/08 02:28:15;;;;;;;3.50;3.20;;;;;17.70;100635.00;;;;2079965;28;20683;-68
2021/05/08 02:29:15;;;;;;;3.30;3.10;;;;;17.70;100629.00;;;;2079816;28;20267;-68
2021/05/08 02:30:20;;;;;;;2.90;2.70;;;;;17.80;100630.00;;;;2079781;28;20240;-68
2021/05/08 02:31:20;;;;;;;3.28;3.00;;;;;17.70;100627.00;;;;2079696;28;20214;-68
2021/05/08 02:32:21;;;;;;;3.00;2.80;;;;;17.70;100632.00;;;;2077341;28;20614;-68
2021/05/08 02:33:21;;;;;;;3.40;3.10;;;;;17.70;100628.00;;;;2080348;28;20292;-69
2021/05/08 02:34:22;;;;;;;3.10;2.80;;;;;17.70;100624.00;;;;2080331;28;20210;-68
2021/05/08 02:35:22;;;;;;;3.00;2.80;;;;;17.70;100618.00;;;;2079763;28;20221;-68
2021/05/08 02:36:23;;;;;;;3.40;3.10;;;;;17.70;100615.00;;;;2079473;28;20318;-67
2021/05/08 02:37:23;;;;;;;3.10;2.80;;;;;17.70;100618.00;;;;2079095;28;20632;-66
2021/05/08 02:38:23;;;;;;;3.10;2.90;;;;;17.70;100615.00;;;;2079507;28;20590;-66
2021/05/08 02:39:24;;;;;;;2.90;2.70;;;;;17.70;100621.00;;;;2080380;28;20356;-66
2021/05/08 02:40:26;;;;;;;3.10;2.80;;;;;17.70;100620.00;;;;2080215;28;20278;-66
2021/05/08 02:41:26;;;;;;;2.95;2.75;;;;;17.70;100613.00;;;;2080443;28;20228;-66
2021/05/08 02:42:27;;;;;;;2.97;2.67;;;;;17.70;100620.00;;;;2080266;28;20597;-66
2021/05/08 02:43:27;;;;;;;3.50;3.10;;;;;17.70;100611.00;;;;2080397;28;20245;-66
2021/05/08 02:44:27;;;;;;;2.70;2.50;;;;;17.50;100622.00;;;;2080540;28;20209;-66
2021/05/08 02:45:27;;;;;;;2.97;2.77;;;;;17.70;100613.00;;;;2080378;28;20248;-66
2021/05/08 02:46:28;;;;;;;3.60;3.30;;;;;17.70;100611.00;;;;2076196;28;20210;-67
2021/05/08 02:47:28;;;;;;;2.70;2.50;;;;;17.70;100613.00;;;;2080375;28;20206;-66
2021/05/08 02:48:29;;;;;;;3.20;2.90;;;;;17.70;100619.00;;;;2080294;28;20248;-66
2021/05/08 02:49:29;;;;;;;2.73;2.53;;;;;17.70;100613.00;;;;2079236;28;20848;-66
2021/05/08 02:50:29;;;;;;;3.20;2.97;;;;;17.70;100617.00;;;;2079696;28;20210;-66
2021/05/08 02:51:30;;;;;;;3.10;2.90;;;;;17.70;100612.00;;;;2080327;28;20214;-66
2021/05/08 02:52:30;;;;;;;2.73;2.50;;;;;17.70;100611.00;;;;2079699;28;20297;-66
2021/05/08 02:53:30;;;;;;;2.90;2.70;;;;;17.70;100605.00;;;;2079986;28;20685;-66
2021/05/08 02:54:31;;;;;;;3.40;3.10;;;;;17.70;100605.00;;;;2080382;28;20708;-66
2021/05/08 02:55:31;;;;;;;3.23;2.97;;;;;17.70;100599.00;;;;2080440;28;20922;-66
2021/05/08 02:56:31;;;;;;;2.97;2.57;;;;;17.70;100606.00;;;;2080294;28;20562;-66
2021/05/08 02:57:32;;;;;;;2.90;2.70;;;;;17.70;100606.00;;;;2080386;28;20216;-66
2021/05/08 02:58:32;;;;;;;2.90;2.70;;;;;17.70;100604.00;;;;2080213;28;20264;-66
2021/05/08 02:59:32;;;;;;;3.03;2.83;;;;;17.70;100604.00;;;;2080230;28;20209;-66
2021/05/08 03:00:33;;;;;;;3.07;2.87;;;;;17.70;100596.00;;;;2080275;28;20213;-66
2021/05/08 03:01:33;;;;;;;2.87;2.67;;;;;17.70;100602.00;;;;2079858;28;20280;-66
2021/05/08 03:02:34;;;;;;;2.90;2.60;;;;;17.70;100605.00;;;;2070296;28;20631;-66
2021/05/08 03:03:34;;;;;;;2.60;2.40;;;;;17.70;100605.00;;;;2079637;28;20696;-66
2021/05/08 03:04:34;;;;;;;3.13;2.93;;;;;17.70;100609.00;;;;2079416;28;20255;-66
2021/05/08 03:05:35;;;;;;;3.27;2.97;;;;;17.70;100603.00;;;;2080124;28;20297;-66
2021/05/08 03:06:35;;;;;;;2.80;2.60;;;;;17.70;100603.00;;;;2079572;28;20609;-66
2021/05/08 03:07:36;;;;;;;3.10;2.87;;;;;17.70;100598.00;;;;2079394;28;20217;-66
2021/05/08 03:08:36;;;;;;;3.00;2.80;;;;;17.70;100600.00;;;;2080299;28;20221;-66
2021/05/08 03:09:36;;;;;;;3.50;3.00;;;;;17.70;100596.00;;;;2080111;28;20623;-66
2021/05/08 03:10:37;;;;;;;3.23;2.93;;;;;17.70;100600.00;;;;2080102;28;20588;-66
2021/05/08 03:11:37;;;;;;;3.10;2.80;;;;;17.70;100602.00;;;;2079661;28;20222;-66
2021/05/08 03:12:37;;;;;;;2.83;2.63;;;;;17.70;100599.00;;;;2079341;28;20241;-67
2021/05/08 03:13:38;;;;;;;3.13;2.83;;;;;17.70;100598.00;;;;2080121;28;20210;-66
2021/05/08 03:14:39;;;;;;;2.70;2.50;;;;;17.70;100598.00;;;;2079407;28;20692;-66
2021/05/08 03:15:39;;;;;;;3.00;2.80;;;;;17.70;100594.00;;;;2079860;28;20487;-66
2021/05/08 03:16:41;;;;;;;3.20;2.90;;;;;17.70;100582.00;;;;2080062;28;20261;-66
2021/05/08 03:17:41;;;;;;;3.50;3.20;;;;;17.70;100583.00;;;;2080243;28;20214;-66
2021/05/08 03:18:41;;;;;;;3.10;2.80;;;;;17.70;100589.00;;;;2080307;28;20209;-66
2021/05/08 03:19:42;;;;;;;3.17;2.87;;;;;17.70;100583.00;;;;2079932;28;20214;-67
2021/05/08 03:20:42;;;;;;;3.00;2.70;;;;;17.70;100594.00;;;;2079232;28;20210;-66
2021/05/08 03:21:43;;;;;;;3.23;2.70;;;;;17.70;100577.00;;;;2080161;28;20576;-66
2021/05/08 03:22:43;;;;;;;3.40;3.10;;;;;17.70;100586.00;;;;2078020;28;20221;-66
2021/05/08 03:23:43;;;;;;;2.80;2.60;;;;;17.70;100590.00;;;;2080262;28;20213;-65
2021/05/08 03:24:44;;;;;;;3.23;3.03;;;;;17.60;100579.00;;;;2077255;28;20217;-66
2021/05/08 03:25:44;;;;;;;3.40;3.10;;;;;17.70;100586.00;;;;2080067;28;20557;-66
2021/05/08 03:26:44;;;;;;;3.20;2.97;;;;;17.70;100588.00;;;;2079673;28;20791;-66
2021/05/08 03:27:45;;;;;;;2.80;2.60;;;;;17.70;100581.00;;;;2080206;28;20312;-66
2021/05/08 03:28:45;;;;;;;3.20;2.80;;;;;17.70;100592.00;;;;2079818;28;20221;-66
2021/05/08 03:29:46;;;;;;;2.90;2.70;;;;;17.70;100590.00;;;;2080108;28;20214;-66
2021/05/08 03:30:47;;;;;;;2.70;2.47;;;;;17.60;100583.00;;;;2080191;28;20239;-67
2021/05/08 03:31:47;;;;;;;3.00;2.80;;;;;17.70;100583.00;;;;2069820;28;20241;-66
2021/05/08 03:32:47;;;;;;;2.53;2.33;;;;;17.70;100577.00;;;;2079240;28;20220;-66
2021/05/08 03:33:48;;;;;;;2.80;2.60;;;;;17.70;100580.00;;;;2079995;28;20304;-66
2021/05/08 03:34:48;;;;;;;2.90;2.70;;;;;17.70;100579.00;;;;2080233;28;20217;-66
2021/05/08 03:35:48;;;;;;;3.07;2.87;;;;;17.70;100580.00;;;;2079943;28;20730;-66
2021/05/08 03:36:48;;;;;;;3.00;2.80;;;;;17.70;100574.00;;;;2080144;28;20696;-66
2021/05/08 03:37:49;;;;;;;2.73;2.53;;;;;17.70;100580.00;;;;2080037;28;20700;-67
2021/05/08 03:38:49;;;;;;;3.10;2.70;;;;;17.60;100572.00;;;;2080043;28;20259;-66
2021/05/08 03:39:49;;;;;;;2.87;2.67;;;;;17.70;100572.00;;;;2079320;28;20218;-65
2021/05/08 03:40:50;;;;;;;2.90;2.70;;;;;17.70;100575.00;;;;2071148;28;20724;-66
2021/05/08 03:41:51;;;;;;;3.33;3.03;;;;;17.70;100586.00;;;;2079484;28;20704;-67
2021/05/08 03:42:52;;;;;;;2.60;2.40;;;;;17.70;100580.00;;;;2077847;28;20208;-66
2021/05/08 03:43:52;;;;;;;2.90;2.60;;;;;17.70;100581.00;;;;2080231;28;20295;-66
2021/05/08 03:44:52;;;;;;;3.50;3.20;;;;;17.70;100576.00;;;;2079911;28;20618;-66
2021/05/08 03:45:53;;;;;;;2.63;2.43;;;;;17.70;100573.00;;;;2079912;28;20592;-66
2021/05/08 03:46:53;;;;;;;2.80;2.60;;;;;17.70;100582.00;;;;2079887;28;20209;-66
2021/05/08 03:47:54;;;;;;;2.80;2.60;;;;;17.70;100578.00;;;;2080013;28;20210;-66
2021/05/08 03:48:54;;;;;;;3.20;2.90;;;;;17.70;100572.00;;;;2080064;28;20210;-66
2021/05/08 03:49:55;;;;;;;2.90;2.70;;;;;17.70;100579.00;;;;2080145;28;20202;-66
2021/05/08 03:50:55;;;;;;;3.23;2.90;;;;;17.70;100569.00;;;;2080171;28;20213;-66
2021/05/08 03:52:03;;;;;;;2.60;2.40;;;;;17.70;100574.00;;;;2079833;28;20484;-66
2021/05/08 03:53:03;;;;;;;2.90;2.70;;;;;17.60;100574.00;;;;2079339;28;20214;-66
2021/05/08 03:54:04;;;;;;;2.67;2.47;;;;;17.60;100572.00;;;;2079244;28;20641;-68
2021/05/08 03:55:05;;;;;;;2.60;2.40;;;;;17.70;100578.00;;;;2080179;28;20222;-66
2021/05/08 03:56:05;;;;;;;3.33;3.03;;;;;17.70;100571.00;;;;2080026;28;20646;-66
2021/05/08 03:57:05;;;;;;;3.70;3.40;;;;;17.60;100573.00;;;;2080114;28;20222;-66
2021/05/08 03:58:06;;;;;;;2.60;2.40;;;;;17.60;100576.00;;;;2080206;28;20711;-66
2021/05/08 03:59:06;;;;;;;2.70;2.50;;;;;17.70;100574.00;;;;2080128;28;20729;-65
2021/05/08 04:00:07;;;;;;;3.30;3.10;;;;;17.60;100568.00;;;;2079087;28;20261;-66
2021/05/08 04:01:07;;;;;;;3.13;2.90;;;;;17.60;100572.00;;;;2071122;28;20619;-66
2021/05/08 04:02:08;;;;;;;2.40;2.20;;;;;17.60;100567.00;;;;2079192;28;20210;-66
2021/05/08 04:03:08;;;;;;;3.20;3.00;;;;;17.70;100571.00;;;;2079942;28;20257;-66
2021/05/08 04:04:09;;;;;;;2.70;2.50;;;;;17.70;100562.00;;;;2080231;28;20224;-64
2021/05/08 04:05:10;;;;;;;2.70;2.50;;;;;17.70;100567.00;;;;2079916;28;20703;-66
2021/05/08 04:06:10;;;;;;;2.80;2.60;;;;;17.60;100567.00;;;;2080142;28;20847;-66
2021/05/08 04:07:10;;;;;;;2.57;2.37;;;;;17.60;100572.00;;;;2080014;28;20217;-66
2021/05/08 04:08:11;;;;;;;2.77;2.57;;;;;17.60;100566.00;;;;2079237;28;20714;-66
2021/05/08 04:09:12;;;;;;;2.70;2.50;;;;;17.70;100570.00;;;;2080096;28;20305;-65
2021/05/08 04:10:12;;;;;;;3.10;2.80;;;;;17.60;100563.00;;;;2079708;28;20456;-66
2021/05/08 04:11:12;;;;;;;2.60;2.40;;;;;17.60;100564.00;;;;2080069;28;20248;-65
2021/05/08 04:12:13;;;;;;;3.00;2.80;;;;;17.70;100565.00;;;;2079882;28;20223;-66
2021/05/08 04:13:14;;;;;;;2.70;2.50;;;;;17.60;100566.00;;;;2080107;28;20217;-66
2021/05/08 04:14:14;;;;;;;3.10;2.80;;;;;17.70;100570.00;;;;2079998;28;20210;-66
2021/05/08 04:15:14;;;;;;;2.60;2.40;;;;;17.60;100563.00;;;;2079912;28;20251;-66
2021/05/08 04:16:15;;;;;;;2.47;2.30;;;;;17.60;100570.00;;;;2079870;28;20218;-65
2021/05/08 04:17:15;;;;;;;2.67;2.47;;;;;17.60;100571.00;;;;2075980;28;20217;-66
2021/05/08 04:18:16;;;;;;;2.80;2.60;;;;;17.60;100570.00;;;;2079946;28;20247;-66
2021/05/08 04:19:17;;;;;;;3.03;2.83;;;;;17.60;100567.00;;;;2079925;28;20328;-65
2021/05/08 04:20:17;;;;;;;2.67;2.47;;;;;17.60;100571.00;;;;2079837;28;20234;-66
2021/05/08 04:21:17;;;;;;;2.60;2.40;;;;;17.60;100570.00;;;;2079790;28;20275;-66
2021/05/08 04:22:18;;;;;;;2.90;2.63;;;;;17.60;100569.00;;;;2079828;28;20588;-66
2021/05/08 04:23:18;;;;;;;2.80;2.60;;;;;17.60;100579.00;;;;2078890;28;20713;-66
2021/05/08 04:24:18;;;;;;;2.90;2.70;;;;;17.70;100567.00;;;;2080017;28;20222;-66
2021/05/08 04:25:19;;;;;;;2.67;2.47;;;;;17.60;100567.00;;;;2081181;28;20213;-66
2021/05/08 04:26:19;;;;;;;2.70;2.50;;;;;17.60;100566.00;;;;2081277;28;20244;-65
2021/05/08 04:27:20;;;;;;;2.67;2.47;;;;;17.60;100565.00;;;;2081394;28;20710;-66
2021/05/08 04:28:20;;;;;;;3.70;2.83;;;;;17.60;100562.00;;;;2081422;28;20755;-65
2021/05/08 04:29:20;;;;;;;3.10;2.90;;;;;17.60;100565.00;;;;2081520;28;20572;-66
2021/05/08 04:30:21;;;;;;;2.77;2.57;;;;;17.60;100569.00;;;;2081457;28;20216;-66
2021/05/08 04:31:21;;;;;;;2.77;2.57;;;;;17.60;100568.00;;;;2080828;28;20337;-66
2021/05/08 04:32:21;;;;;;;3.03;2.73;;;;;17.60;100564.00;;;;2080311;28;20216;-66
2021/05/08 04:33:22;;;;;;;3.00;2.80;;;;;17.60;100561.00;;;;2081230;28;20299;-66
2021/05/08 04:34:22;;;;;;;2.10;2.00;;;;;17.60;100563.00;;;;2081284;28;20208;-66
2021/05/08 04:35:22;;;;;;;3.00;2.80;;;;;17.60;100562.00;;;;2081453;28;20700;-65
2021/05/08 04:36:23;;;;;;;2.97;2.67;;;;;17.60;100565.00;;;;2081337;28;20714;-66
2021/05/08 04:37:23;;;;;;;2.87;2.67;;;;;17.60;100563.00;;;;2081288;28;20220;-66
2021/05/08 04:38:23;;;;;;;2.87;2.67;;;;;17.60;100562.00;;;;2081046;28;20237;-67
2021/05/08 04:39:25;;;;;;;2.77;2.57;;;;;17.60;100563.00;;;;2081335;28;20297;-66
2021/05/08 04:40:25;;;;;;;2.92;2.72;;;;;17.60;100567.00;;;;2081151;28;20218;-66
2021/05/08 04:41:25;;;;;;;2.67;2.47;;;;;17.60;100560.00;;;;2081306;28;20220;-66
2021/05/08 04:42:26;;;;;;;2.37;2.17;;;;;17.60;100563.00;;;;2081187;28;20217;-65
2021/05/08 04:43:26;;;;;;;2.60;2.40;;;;;17.60;100558.00;;;;2081277;28;20312;-66
2021/05/08 04:44:26;;;;;;;2.60;2.40;;;;;17.60;100562.00;;;;2081316;28;20785;-66
2021/05/08 04:45:27;;;;;;;2.60;2.40;;;;;17.70;100560.00;;;;2081596;28;20684;-66
2021/05/08 04:46:27;;;;;;;3.10;2.90;;;;;17.70;100556.00;;;;2081734;28;20240;-66
2021/05/08 04:47:28;;;;;;;2.70;2.50;;;;;17.60;100560.00;;;;2085244;28;20209;-66
2021/05/08 04:48:32;;;;;;;2.57;2.37;;;;;17.60;100559.00;;;;2081674;28;20292;-66
2021/05/08 04:49:32;;;;;;;2.70;2.50;;;;;17.60;100552.00;;;;2081184;28;20244;-66
2021/05/08 04:50:32;;;;;;;2.60;2.40;;;;;17.60;100557.00;;;;2081327;28;20217;-66
2021/05/08 04:51:33;;;;;;;2.50;2.30;;;;;17.60;100557.00;;;;2081167;28;20205;-68
2021/05/08 04:52:33;;;;;;;2.67;2.47;;;;;17.60;100557.00;;;;2080979;28;20202;-66
2021/05/08 04:53:33;;;;;;;2.50;2.30;;;;;17.60;100559.00;;;;2080823;28;20694;-66
2021/05/08 04:54:34;;;;;;;3.43;2.57;;;;;17.60;100552.00;;;;2081163;28;20553;-66
2021/05/08 04:55:34;;;;;;;2.93;2.50;;;;;17.60;100560.00;;;;2081241;28;20703;-66
2021/05/08 04:56:34;;;;;;;2.60;2.40;;;;;17.60;100556.00;;;;2081436;28;20771;-66
2021/05/08 04:57:35;;;;;;;2.53;2.33;;;;;17.60;100553.00;;;;2080962;28;20697;-66
2021/05/08 04:58:35;;;;;;;2.60;2.40;;;;;17.60;100556.00;;;;2081360;28;20754;-66
2021/05/08 04:59:36;;;;;;;2.80;2.60;;;;;17.60;100553.00;;;;2081124;28;20206;-66